createdAt,value
2023-01-18T08:12:39.407Z,500.00
2023-01-18T12:35:28.311Z,500.00
2023-01-18T12:36:28.235Z,500.00
2023-01-18T12:37:28.156Z,500.00
2023-01-18T12:38:28.106Z,500.00
2023-01-18T12:39:27.992Z,500.00
2023-01-18T12:40:27.906Z,427.00
2023-01-18T12:41:27.822Z,400.00
2023-01-18T12:42:27.730Z,400.00
2023-01-18T12:43:27.668Z,400.00
2023-01-18T12:44:27.549Z,400.00
2023-01-18T12:45:27.462Z,400.00
2023-01-18T12:46:27.408Z,400.00
2023-01-18T12:47:27.277Z,400.00
2023-01-18T12:48:27.173Z,400.00
2023-01-18T12:49:27.081Z,400.00
2023-01-18T12:50:26.992Z,400.00
2023-01-18T12:51:26.871Z,400.00
2023-01-18T12:52:26.787Z,427.00
2023-01-18T12:53:26.703Z,465.00
2023-01-18T12:54:26.557Z,500.00
2023-01-18T12:55:26.463Z,500.00
2023-01-18T12:56:26.351Z,500.00
2023-01-18T12:57:26.242Z,504.00
2023-01-18T12:58:26.144Z,509.00
2023-01-18T12:59:26.035Z,501.00
2023-01-18T13:00:25.938Z,500.00
2023-01-18T13:01:25.950Z,501.00
2023-01-18T13:02:25.735Z,500.00
2023-01-18T13:03:25.668Z,500.00
2023-01-18T13:04:25.520Z,503.00
2023-01-18T13:05:25.418Z,502.00
2023-01-18T13:06:25.325Z,500.00
2023-01-18T13:07:25.206Z,508.00
2023-01-18T13:08:25.095Z,502.00
2023-01-18T13:09:24.992Z,500.00
2023-01-18T13:10:24.911Z,501.00
2023-01-18T13:11:24.804Z,501.00
2023-01-18T13:12:24.706Z,500.00
2023-01-18T13:13:24.596Z,500.00
2023-01-18T13:14:24.499Z,508.00
2023-01-18T13:15:24.381Z,503.00
2023-01-18T13:16:24.274Z,507.00
2023-01-18T13:17:24.175Z,501.00
2023-01-18T13:18:24.087Z,509.00
2023-01-18T13:19:24.838Z,502.00
2023-01-18T13:20:23.891Z,508.00
2023-01-18T13:21:23.796Z,503.00
2023-01-18T13:22:23.699Z,507.00
2023-01-18T13:23:23.596Z,500.00
2023-01-18T13:24:23.498Z,502.00
2023-01-18T13:25:25.031Z,508.00
2023-01-18T13:26:23.317Z,504.00
2023-01-18T13:27:23.202Z,507.00
2023-01-18T13:28:23.107Z,508.00
2023-01-18T13:29:23.003Z,508.00
2023-01-18T13:30:22.903Z,507.00
2023-01-18T13:31:22.821Z,512.00
2023-01-18T13:32:22.708Z,509.00
2023-01-18T13:33:22.603Z,515.00
2023-01-18T13:34:22.517Z,507.00
2023-01-18T13:35:24.987Z,508.00
2023-01-18T13:36:22.293Z,513.00
2023-01-18T13:37:22.188Z,509.00
2023-01-18T13:38:25.442Z,513.00
2023-01-18T13:40:21.880Z,513.00
2023-01-18T13:41:21.777Z,515.00
2023-01-18T13:42:21.683Z,516.00
2023-01-18T13:50:20.851Z,528.00
2023-01-18T14:10:19.373Z,552.00
2023-01-18T14:11:19.356Z,548.00
2023-01-18T14:12:19.267Z,549.00
2023-01-18T14:13:19.199Z,556.00
2023-01-18T14:14:19.147Z,558.00
2023-01-18T14:16:19.080Z,556.00
2023-01-18T14:17:18.972Z,558.00
2023-01-18T14:19:18.863Z,557.00
2023-01-18T14:20:18.786Z,561.00
2023-01-18T14:21:18.724Z,564.00
2023-01-18T14:22:18.672Z,569.00
2023-01-18T14:23:18.610Z,568.00
2023-01-18T14:24:18.539Z,576.00
2023-01-18T14:25:18.487Z,573.00
2023-01-18T14:26:18.430Z,575.00
2023-01-18T14:27:18.374Z,574.00
2023-01-18T14:28:18.317Z,583.00
2023-01-18T14:29:18.262Z,580.00
2023-01-18T14:30:18.211Z,581.00
2023-01-18T14:31:18.156Z,579.00
2023-01-18T14:32:18.094Z,582.00
2023-01-18T14:33:18.028Z,587.00
2023-01-18T14:34:17.968Z,587.00
2023-01-18T14:35:17.911Z,588.00
2023-01-18T14:36:17.905Z,586.00
2023-01-18T14:37:17.816Z,592.00
2023-01-18T14:38:19.004Z,588.00
2023-01-18T14:39:17.689Z,593.00
2023-01-18T14:40:17.651Z,593.00
2023-01-18T14:41:17.578Z,593.00
2023-01-18T14:42:17.537Z,590.00
2023-01-18T14:43:17.476Z,599.00
2023-01-18T14:44:17.439Z,601.00
2023-01-18T14:45:17.366Z,598.00
2023-01-18T14:46:17.354Z,601.00
2023-01-18T14:47:23.884Z,603.00
2023-01-18T14:48:18.164Z,603.00
2023-01-18T14:49:17.067Z,601.00
2023-01-18T14:50:16.955Z,604.00
2023-01-18T14:51:16.858Z,607.00
2023-01-18T14:52:16.748Z,608.00
2023-01-18T14:53:16.699Z,608.00
2023-01-18T14:54:16.527Z,608.00
2023-01-18T14:55:16.419Z,610.00
2023-01-18T14:56:16.335Z,613.00
2023-01-18T14:57:16.211Z,615.00
2023-01-18T14:58:16.138Z,618.00
2023-01-18T14:59:15.993Z,620.00
2023-01-18T15:00:15.958Z,619.00
2023-01-18T15:01:15.963Z,623.00
2023-01-18T15:02:15.872Z,624.00
2023-01-18T15:03:15.799Z,627.00
2023-01-18T15:04:15.744Z,622.00
2023-01-18T15:05:15.713Z,626.00
2023-01-18T15:06:15.650Z,627.00
2023-01-18T15:07:15.606Z,626.00
2023-01-18T15:08:15.557Z,629.00
2023-01-18T15:09:15.500Z,589.00
2023-01-18T15:39:14.269Z,640.00
2023-01-18T15:40:14.232Z,642.00
2023-01-18T15:41:14.192Z,647.00
2023-01-18T15:42:14.160Z,646.00
2023-01-18T15:43:14.119Z,644.00
2023-01-18T15:44:14.066Z,644.00
2023-01-18T15:45:14.024Z,647.00
2023-01-18T15:46:13.979Z,650.00
2023-01-18T15:47:13.941Z,650.00
2023-01-18T15:48:13.895Z,652.00
2023-01-18T15:49:13.840Z,652.00
2023-01-18T15:50:13.808Z,654.00
2023-01-18T15:51:13.762Z,654.00
2023-01-18T15:52:13.721Z,656.00
2023-01-18T15:53:13.671Z,659.00
2023-01-18T15:54:13.631Z,655.00
2023-01-18T15:55:13.577Z,657.00
2023-01-18T15:56:13.535Z,661.00
2023-01-18T15:57:13.501Z,656.00
2023-01-18T15:58:13.459Z,655.00
2023-01-18T15:59:13.408Z,655.00
2023-01-18T16:00:13.373Z,661.00
2023-01-18T16:01:13.435Z,665.00
2023-01-18T16:02:13.398Z,667.00
2023-01-18T16:03:13.248Z,672.00
2023-01-18T16:04:13.202Z,667.00
2023-01-18T16:05:13.181Z,664.00
2023-01-18T16:06:13.119Z,675.00
2023-01-18T16:07:13.075Z,681.00
2023-01-18T16:08:16.020Z,681.00
2023-01-18T16:09:13.372Z,679.00
2023-01-18T16:10:12.828Z,679.00
2023-01-18T16:11:12.722Z,687.00
2023-01-18T16:12:12.615Z,699.00
2023-01-18T16:13:12.511Z,689.00
2023-01-18T16:14:12.400Z,697.00
2023-01-18T16:15:12.300Z,696.00
2023-01-18T16:16:12.208Z,689.00
2023-01-18T16:17:12.090Z,705.00
2023-01-18T16:18:12.001Z,707.00
2023-01-18T16:19:11.892Z,717.00
2023-01-18T16:20:11.788Z,726.00
2023-01-18T16:21:11.691Z,726.00
2023-01-18T16:22:11.591Z,719.00
2023-01-18T16:23:11.479Z,716.00
2023-01-18T16:24:11.383Z,720.00
2023-01-18T16:25:11.280Z,717.00
2023-01-18T16:26:11.224Z,736.00
2023-01-18T16:27:11.395Z,744.00
2023-01-18T16:28:10.986Z,751.00
2023-01-18T16:29:10.880Z,730.00
2023-01-18T16:30:10.793Z,741.00
2023-01-18T16:31:10.794Z,733.00
2023-01-18T16:32:10.564Z,744.00
2023-01-18T16:33:10.476Z,745.00
2023-01-18T16:34:10.364Z,747.00
2023-01-18T16:35:11.027Z,740.00
2023-01-18T16:36:10.149Z,753.00
2023-01-18T16:37:10.060Z,760.00
2023-01-18T16:38:09.957Z,754.00
2023-01-18T16:39:09.845Z,755.00
2023-01-18T16:40:09.752Z,761.00
2023-01-18T16:41:09.701Z,772.00
2023-01-18T16:42:09.661Z,754.00
2023-01-18T16:43:09.622Z,763.00
2023-01-18T16:44:09.615Z,760.00
2023-01-18T16:45:09.556Z,760.00
2023-01-18T16:46:09.644Z,762.00
2023-01-18T16:47:09.478Z,761.00
2023-01-18T16:48:09.440Z,748.00
2023-01-18T16:49:09.403Z,779.00
2023-01-18T16:50:09.358Z,776.00
2023-01-18T16:51:09.315Z,782.00
2023-01-18T16:52:09.282Z,777.00
2023-01-18T16:53:09.265Z,782.00
2023-01-18T16:54:09.209Z,774.00
2023-01-18T16:55:09.187Z,784.00
2023-01-18T16:56:09.144Z,782.00
2023-01-18T16:57:09.111Z,785.00
2023-01-18T16:58:09.077Z,786.00
2023-01-18T16:59:09.048Z,793.00
2023-01-18T17:00:09.021Z,790.00
2023-01-18T17:01:09.051Z,789.00
2023-01-18T17:02:09.073Z,790.00
2023-01-18T17:03:08.975Z,791.00
2023-01-18T17:04:08.881Z,807.00
2023-01-18T17:05:08.854Z,797.00
2023-01-18T17:07:08.784Z,792.00
2023-01-18T17:08:08.751Z,813.00
2023-01-18T17:09:08.704Z,802.00
2023-01-18T17:10:08.685Z,818.00
2023-01-18T17:11:08.641Z,805.00
2023-01-18T17:12:08.597Z,811.00
2023-01-18T17:13:08.569Z,818.00
2023-01-18T17:14:08.527Z,819.00
2023-01-18T17:15:08.493Z,825.00
2023-01-18T17:18:08.395Z,816.00
2023-01-18T17:19:08.333Z,831.00
2023-01-18T17:20:08.303Z,829.00
2023-01-18T17:21:08.245Z,827.00
2023-01-18T17:22:08.212Z,821.00
2023-01-18T17:23:08.177Z,828.00
2023-01-18T17:24:08.134Z,834.00
2023-01-18T17:25:08.108Z,830.00
2023-01-18T17:26:08.069Z,843.00
2023-01-18T17:27:08.024Z,830.00
2023-01-18T17:28:07.984Z,846.00
2023-01-18T17:29:07.956Z,849.00
2023-01-18T17:30:07.930Z,841.00
2023-01-18T17:31:07.904Z,842.00
2023-01-18T17:32:07.848Z,838.00
2023-01-18T17:33:07.807Z,846.00
2023-01-18T17:34:07.775Z,857.00
2023-01-18T17:35:07.757Z,851.00
2023-01-18T17:36:07.710Z,851.00
2023-01-18T17:37:07.680Z,854.00
2023-01-18T17:38:22.158Z,862.00
2023-01-18T17:40:16.985Z,859.00
2023-01-18T17:41:11.392Z,862.00
2023-01-18T17:42:08.361Z,863.00
2023-01-18T17:43:07.132Z,862.00
2023-01-18T17:44:07.048Z,863.00
2023-01-18T17:45:06.943Z,865.00
2023-01-18T17:46:06.957Z,861.00
2023-01-18T17:47:06.758Z,865.00
2023-01-18T17:48:06.641Z,871.00
2023-01-18T17:49:06.541Z,873.00
2023-01-18T17:50:06.430Z,864.00
2023-01-18T17:51:06.326Z,860.00
2023-01-18T17:52:06.252Z,862.00
2023-01-18T17:53:06.143Z,871.00
2023-01-18T17:54:13.169Z,874.00
2023-01-18T17:55:06.967Z,874.00
2023-01-18T17:56:05.865Z,875.00
2023-01-18T17:57:05.755Z,875.00
2023-01-18T17:58:05.658Z,870.00
2023-01-18T17:59:05.546Z,876.00
2023-01-18T21:22:58.294Z,1070.00
2023-01-18T21:23:58.256Z,1064.00
2023-01-18T21:24:58.212Z,1061.00
2023-01-18T21:25:58.204Z,1072.00
2023-01-18T21:26:58.184Z,1069.00
2023-01-18T21:27:58.553Z,1070.00
2023-01-18T21:39:57.796Z,1077.00
2023-01-18T21:40:57.748Z,1081.00
2023-01-18T21:41:57.715Z,1078.00
2023-01-18T21:42:57.693Z,1076.00
2023-01-18T21:43:57.659Z,1070.00
2023-01-18T21:44:57.608Z,1077.00
2023-01-18T21:45:57.608Z,1073.00
2023-01-18T21:46:57.588Z,1087.00
2023-01-18T21:47:58.022Z,1080.00
2023-01-18T21:48:57.461Z,1080.00
2023-01-18T21:50:16.613Z,1074.00
2023-01-18T21:51:57.226Z,1076.00
2023-01-18T21:52:57.153Z,1079.00
2023-01-18T21:53:57.061Z,1079.00
2023-01-18T21:54:56.949Z,1082.00
2023-01-18T21:55:56.851Z,1084.00
2023-01-18T21:56:56.770Z,1089.00
2023-01-18T21:57:56.667Z,1083.00
2023-01-18T21:58:56.571Z,1086.00
2023-01-18T21:59:56.465Z,1087.00
2023-01-18T22:00:56.435Z,1085.00
2023-01-18T22:01:56.502Z,1096.00
2023-01-18T22:02:56.283Z,1078.00
2023-01-18T22:05:55.992Z,1089.00
2023-01-18T22:08:55.813Z,1078.00
2023-01-18T22:10:55.719Z,1086.00
2023-01-18T22:11:55.651Z,1098.00
2023-01-18T22:12:55.581Z,1086.00
2023-01-18T22:13:55.522Z,1094.00
